createdAt,value
2023-01-07T00:00:09.407Z,976.32
2023-01-07T00:01:09.234Z,976.29
2023-01-07T00:02:09.213Z,976.23
2023-01-07T00:03:09.215Z,976.27
2023-01-07T00:04:09.240Z,976.19
2023-01-07T00:05:09.219Z,976.24
2023-01-07T00:06:09.165Z,976.27
2023-01-07T00:07:11.744Z,976.28
2023-01-07T00:08:09.343Z,976.26
2023-01-07T00:09:09.150Z,976.21
2023-01-07T00:10:09.181Z,976.26
2023-01-07T00:11:09.249Z,976.23
2023-01-07T00:12:09.088Z,976.24
2023-01-07T00:13:09.128Z,976.29
2023-01-07T00:14:09.062Z,976.26
2023-01-07T00:15:09.172Z,976.30
2023-01-07T00:16:09.123Z,976.21
2023-01-07T00:17:09.095Z,976.29
2023-01-07T00:18:09.096Z,976.29
2023-01-07T00:19:09.101Z,976.25
2023-01-07T00:20:09.015Z,976.19
2023-01-07T00:21:09.015Z,976.21
2023-01-07T00:22:08.974Z,976.19
2023-01-07T00:23:09.025Z,976.18
2023-01-07T00:24:08.946Z,976.20
2023-01-07T00:25:09.085Z,976.19
2023-01-07T00:26:08.939Z,976.24
2023-01-07T00:27:08.972Z,976.19
2023-01-07T00:28:08.901Z,976.21
2023-01-07T00:29:08.899Z,976.17
2023-01-07T00:30:08.913Z,976.20
2023-01-07T00:31:08.944Z,976.18
2023-01-07T00:32:08.832Z,976.18
2023-01-07T00:33:08.872Z,976.20
2023-01-07T00:34:08.868Z,976.17
2023-01-07T00:35:08.838Z,976.19
2023-01-07T00:36:08.801Z,976.14
2023-01-07T00:37:08.848Z,976.11
2023-01-07T00:38:08.776Z,976.12
2023-01-07T00:39:08.894Z,976.13
2023-01-07T00:40:08.726Z,976.12
2023-01-07T00:41:09.487Z,976.13
2023-01-07T00:42:08.834Z,976.10
2023-01-07T00:43:08.777Z,976.07
2023-01-07T00:44:08.783Z,976.10
2023-01-07T00:45:08.805Z,976.05
2023-01-07T00:46:08.719Z,976.03
2023-01-07T00:47:08.825Z,976.02
2023-01-07T00:48:08.691Z,976.00
2023-01-07T00:49:08.639Z,975.96
2023-01-07T00:50:08.774Z,975.96
2023-01-07T00:51:08.587Z,975.96
2023-01-07T00:52:08.590Z,975.98
2023-01-07T00:53:08.614Z,975.96
2023-01-07T00:54:08.607Z,975.93
2023-01-07T00:55:08.579Z,975.91
2023-01-07T00:56:08.559Z,975.91
2023-01-07T00:57:08.513Z,975.93
2023-01-07T00:58:08.520Z,975.92
2023-01-07T00:59:08.514Z,975.89
2023-01-07T01:00:08.524Z,975.95
2023-01-07T01:01:08.563Z,975.92
2023-01-07T01:02:08.623Z,975.92
2023-01-07T01:03:08.457Z,975.89
2023-01-07T01:04:08.474Z,975.87
2023-01-07T01:05:08.449Z,975.95
2023-01-07T01:06:08.445Z,975.91
2023-01-07T01:07:08.425Z,975.89
2023-01-07T01:08:08.421Z,975.88
2023-01-07T01:09:08.372Z,975.88
2023-01-07T01:10:08.384Z,975.89
2023-01-07T01:11:08.423Z,975.83
2023-01-07T01:12:08.361Z,975.85
2023-01-07T01:13:08.319Z,975.82
2023-01-07T01:14:08.336Z,975.85
2023-01-07T01:15:08.296Z,975.81
2023-01-07T01:16:08.391Z,975.84
2023-01-07T01:17:08.293Z,975.82
2023-01-07T01:18:08.275Z,975.88
2023-01-07T01:19:08.265Z,975.86
2023-01-07T01:20:08.298Z,975.84
2023-01-07T01:21:08.633Z,975.87
2023-01-07T01:22:08.239Z,975.83
2023-01-07T01:23:08.233Z,975.85
2023-01-07T01:24:08.284Z,975.80
2023-01-07T01:25:08.252Z,975.83
2023-01-07T01:26:08.190Z,975.78
2023-01-07T01:27:08.161Z,975.78
2023-01-07T01:28:08.141Z,975.83
2023-01-07T01:29:08.111Z,975.78
2023-01-07T01:30:08.115Z,975.78
2023-01-07T01:31:08.207Z,975.80
2023-01-07T01:32:08.131Z,975.73
2023-01-07T01:33:08.150Z,975.75
2023-01-07T01:34:08.101Z,975.76
2023-01-07T01:35:08.047Z,975.76
2023-01-07T01:36:08.110Z,975.79
2023-01-07T01:37:08.038Z,975.79
2023-01-07T01:38:08.058Z,975.75
2023-01-07T01:39:07.991Z,975.73
2023-01-07T01:40:08.005Z,975.71
2023-01-07T01:41:07.977Z,975.70
2023-01-07T01:42:08.004Z,975.68
2023-01-07T01:43:07.980Z,975.68
2023-01-07T01:44:07.994Z,975.67
2023-01-07T01:45:07.956Z,975.68
2023-01-07T01:46:07.997Z,975.68
2023-01-07T01:47:07.897Z,975.63
2023-01-07T01:48:07.881Z,975.68
2023-01-07T01:49:07.875Z,975.65
2023-01-07T01:50:07.940Z,975.61
2023-01-07T01:51:07.830Z,975.64
2023-01-07T01:52:07.881Z,975.65
2023-01-07T01:53:07.846Z,975.61
2023-01-07T01:54:07.820Z,975.64
2023-01-07T01:55:07.785Z,975.62
2023-01-07T01:56:07.824Z,975.61
2023-01-07T01:57:07.786Z,975.66
2023-01-07T01:58:07.768Z,975.61
2023-01-07T01:59:07.746Z,975.64
2023-01-07T02:00:07.768Z,975.60
2023-01-07T02:01:07.818Z,975.63
2023-01-07T02:02:07.848Z,975.64
2023-01-07T02:03:07.696Z,975.62
2023-01-07T02:04:07.684Z,975.61
2023-01-07T02:05:07.668Z,975.63
2023-01-07T02:06:07.713Z,975.62
2023-01-07T02:07:07.633Z,975.64
2023-01-07T02:08:07.690Z,975.61
2023-01-07T02:09:07.608Z,975.62
2023-01-07T02:10:07.631Z,975.58
2023-01-07T02:11:07.581Z,975.62
2023-01-07T02:12:07.605Z,975.60
2023-01-07T02:13:07.560Z,975.61
2023-01-07T02:14:07.580Z,975.62
2023-01-07T02:15:07.533Z,975.55
2023-01-07T02:16:07.583Z,975.58
2023-01-07T02:17:07.506Z,975.58
2023-01-07T02:18:07.590Z,975.59
2023-01-07T02:19:07.475Z,975.55
2023-01-07T02:20:07.503Z,975.53
2023-01-07T02:21:07.463Z,975.52
2023-01-07T02:22:07.503Z,975.52
2023-01-07T02:23:07.456Z,975.54
2023-01-07T02:24:07.483Z,975.51
2023-01-07T02:25:07.437Z,975.48
2023-01-07T02:26:07.417Z,975.49
2023-01-07T02:27:07.411Z,975.45
2023-01-07T02:28:07.397Z,975.48
2023-01-07T02:29:07.387Z,975.45
2023-01-07T02:30:07.386Z,975.43
2023-01-07T02:31:07.351Z,975.44
2023-01-07T02:32:07.366Z,975.36
2023-01-07T02:33:07.374Z,975.46
2023-01-07T02:34:07.325Z,975.44
2023-01-07T02:35:07.299Z,975.46
2023-01-07T02:36:07.296Z,975.44
2023-01-07T02:37:07.289Z,975.45
2023-01-07T02:38:07.276Z,975.43
2023-01-07T02:39:07.283Z,975.44
2023-01-07T02:40:07.254Z,975.41
2023-01-07T02:41:07.215Z,975.39
2023-01-07T02:42:07.226Z,975.40
2023-01-07T02:43:07.187Z,975.41
2023-01-07T02:44:07.217Z,975.36
2023-01-07T02:45:07.188Z,975.35
2023-01-07T02:46:07.238Z,975.36
2023-01-07T02:47:07.139Z,975.31
2023-01-07T02:48:07.149Z,975.28
2023-01-07T02:49:07.134Z,975.29
2023-01-07T02:50:07.135Z,975.28
2023-01-07T02:51:07.079Z,975.29
2023-01-07T02:52:07.130Z,975.26
2023-01-07T02:53:07.053Z,975.25
2023-01-07T02:54:07.103Z,975.24
2023-01-07T02:55:07.027Z,975.21
2023-01-07T02:56:07.049Z,975.19
2023-01-07T02:57:07.004Z,975.18
2023-01-07T02:58:07.029Z,975.16
2023-01-07T02:59:06.987Z,975.18
2023-01-07T03:00:07.032Z,975.15
2023-01-07T03:01:07.180Z,975.13
2023-01-07T03:02:07.023Z,975.11
2023-01-07T03:03:06.948Z,975.12
2023-01-07T03:04:14.038Z,975.07
2023-01-07T03:05:06.917Z,975.04
2023-01-07T03:06:06.913Z,975.02
2023-01-07T03:07:06.873Z,975.03
2023-01-07T03:08:06.938Z,974.99
2023-01-07T03:09:06.855Z,974.99
2023-01-07T03:10:06.900Z,974.95
2023-01-07T03:11:06.824Z,974.98
2023-01-07T03:12:06.822Z,974.99
2023-01-07T03:13:06.797Z,974.95
2023-01-07T03:14:06.824Z,974.91
2023-01-07T03:15:06.768Z,974.92
2023-01-07T03:16:06.857Z,974.89
2023-01-07T03:17:06.753Z,974.89
2023-01-07T03:18:06.762Z,974.92
2023-01-07T03:19:06.730Z,974.86
2023-01-07T03:20:06.745Z,974.91
2023-01-07T03:21:06.699Z,974.87
2023-01-07T03:22:06.741Z,974.88
2023-01-07T03:23:06.690Z,974.85
2023-01-07T03:24:06.701Z,974.88
2023-01-07T03:25:06.647Z,974.88
2023-01-07T03:26:06.687Z,974.84
2023-01-07T03:27:06.633Z,974.83
2023-01-07T03:28:06.675Z,974.82
2023-01-07T03:29:06.612Z,974.80
2023-01-07T03:30:06.622Z,974.79
2023-01-07T03:31:06.562Z,974.77
2023-01-07T03:32:06.660Z,974.78
2023-01-07T03:33:06.542Z,974.77
2023-01-07T03:34:06.580Z,974.76
2023-01-07T03:35:06.541Z,974.75
2023-01-07T03:36:06.539Z,974.77
2023-01-07T03:37:06.509Z,974.74
2023-01-07T03:38:06.512Z,974.68
2023-01-07T03:39:06.473Z,974.67
2023-01-07T03:40:06.516Z,974.69
2023-01-07T03:41:06.482Z,974.66
2023-01-07T03:42:06.486Z,974.63
2023-01-07T03:43:06.457Z,974.62
2023-01-07T03:44:06.441Z,974.66
2023-01-07T03:45:06.400Z,974.64
2023-01-07T03:46:06.460Z,974.56
2023-01-07T03:47:06.375Z,974.58
2023-01-07T03:48:06.378Z,974.60
2023-01-07T03:49:06.372Z,974.56
2023-01-07T03:50:06.343Z,974.58
2023-01-07T03:51:06.321Z,974.54
2023-01-07T03:52:06.335Z,974.55
2023-01-07T03:53:06.313Z,974.53
2023-01-07T03:54:06.315Z,974.56
2023-01-07T03:55:06.266Z,974.45
2023-01-07T03:56:06.270Z,974.44
2023-01-07T03:57:06.242Z,974.44
2023-01-07T03:58:06.292Z,974.40
2023-01-07T03:59:06.209Z,974.39
2023-01-07T04:00:06.235Z,974.42
2023-01-07T04:01:06.313Z,974.40
2023-01-07T04:02:06.372Z,974.39
2023-01-07T04:03:06.169Z,974.38
2023-01-07T04:04:06.268Z,974.42
2023-01-07T04:05:06.147Z,974.37
2023-01-07T04:06:06.144Z,974.37
2023-01-07T04:07:06.117Z,974.37
2023-01-07T04:08:06.127Z,974.37
2023-01-07T04:09:06.095Z,974.35
2023-01-07T04:10:06.118Z,974.32
2023-01-07T04:11:06.098Z,974.35
2023-01-07T04:12:06.063Z,974.28
2023-01-07T04:13:06.035Z,974.31
2023-01-07T04:14:06.041Z,974.28
2023-01-07T04:15:06.036Z,974.27
2023-01-07T04:16:06.030Z,974.22
2023-01-07T04:17:05.986Z,974.23
2023-01-07T04:18:06.012Z,974.22
2023-01-07T04:19:05.988Z,974.20
2023-01-07T04:20:05.967Z,974.21
2023-01-07T04:21:05.978Z,974.19
2023-01-07T04:22:05.948Z,974.17
2023-01-07T04:23:05.912Z,974.17
2023-01-07T04:24:05.950Z,974.08
2023-01-07T04:25:05.882Z,974.14
2023-01-07T04:26:05.923Z,974.09
2023-01-07T04:27:05.937Z,974.08
2023-01-07T04:28:05.875Z,974.04
2023-01-07T04:29:05.833Z,974.06
2023-01-07T04:30:05.890Z,974.05
2023-01-07T04:31:05.949Z,973.99
2023-01-07T04:32:05.854Z,973.96
2023-01-07T04:33:05.789Z,974.00
2023-01-07T04:34:05.823Z,973.98
2023-01-07T04:35:05.772Z,973.96
2023-01-07T04:36:05.778Z,973.99
2023-01-07T04:37:05.756Z,973.99
2023-01-07T04:38:05.739Z,973.98
2023-01-07T04:39:05.710Z,974.00
2023-01-07T04:40:05.720Z,973.98
2023-01-07T04:41:05.689Z,973.98
2023-01-07T04:42:05.747Z,973.93
2023-01-07T04:43:05.680Z,973.95
2023-01-07T04:44:05.696Z,973.97
2023-01-07T04:45:05.628Z,973.98
2023-01-07T04:46:05.692Z,973.92
2023-01-07T04:47:05.607Z,973.95
2023-01-07T04:48:05.623Z,973.92
2023-01-07T04:49:05.613Z,973.93
2023-01-07T04:50:05.617Z,973.91
2023-01-07T04:51:05.562Z,973.91
2023-01-07T04:52:05.596Z,973.90
2023-01-07T04:53:05.529Z,973.92
2023-01-07T04:54:05.533Z,973.88
2023-01-07T04:55:05.531Z,973.86
2023-01-07T04:56:05.519Z,973.85
2023-01-07T04:57:05.507Z,973.79
2023-01-07T04:58:05.472Z,973.79
2023-01-07T04:59:05.469Z,973.78
2023-01-07T05:00:05.444Z,973.77
2023-01-07T05:01:05.570Z,973.76
2023-01-07T05:02:05.503Z,973.76
2023-01-07T05:03:05.428Z,973.78
2023-01-07T05:04:05.477Z,973.80
2023-01-07T05:05:05.418Z,973.77
2023-01-07T05:06:05.377Z,973.74
2023-01-07T05:07:05.384Z,973.76
2023-01-07T05:08:05.337Z,973.74
2023-01-07T05:09:05.387Z,973.70
2023-01-07T05:10:05.315Z,973.69
2023-01-07T05:11:05.324Z,973.66
2023-01-07T05:12:05.286Z,973.67
2023-01-07T05:13:06.884Z,973.66
2023-01-07T05:14:05.259Z,973.62
2023-01-07T05:15:05.340Z,973.63
2023-01-07T05:16:05.233Z,973.62
2023-01-07T05:17:05.296Z,973.62
2023-01-07T05:18:05.215Z,973.63
2023-01-07T05:19:05.230Z,973.64
2023-01-07T05:20:05.192Z,973.64
2023-01-07T05:21:05.209Z,973.68
2023-01-07T05:22:05.165Z,973.65
2023-01-07T05:23:05.184Z,973.71
2023-01-07T05:24:05.131Z,973.66
2023-01-07T05:25:05.156Z,973.68
2023-01-07T05:26:05.122Z,973.66
2023-01-07T05:27:05.147Z,973.64
2023-01-07T05:28:05.105Z,973.65
2023-01-07T05:29:05.130Z,973.63
2023-01-07T05:30:05.053Z,973.61
2023-01-07T05:31:05.096Z,973.60
2023-01-07T05:32:05.042Z,973.55
2023-01-07T05:33:05.052Z,973.56
2023-01-07T05:34:05.032Z,973.53
2023-01-07T05:35:05.011Z,973.50
2023-01-07T05:36:04.999Z,973.52
2023-01-07T05:37:04.983Z,973.52
2023-01-07T05:38:04.951Z,973.54
2023-01-07T05:39:04.989Z,973.49
2023-01-07T05:40:04.929Z,973.49
2023-01-07T05:41:04.939Z,973.54
2023-01-07T05:42:04.907Z,973.57
2023-01-07T05:43:05.160Z,973.56
2023-01-07T05:44:04.911Z,973.53
2023-01-07T05:45:04.909Z,973.53
2023-01-07T05:46:04.886Z,973.49
2023-01-07T05:47:04.867Z,973.50
2023-01-07T05:48:04.833Z,973.51
2023-01-07T05:49:04.835Z,973.52
2023-01-07T05:50:04.816Z,973.52
2023-01-07T05:51:04.836Z,973.46
2023-01-07T05:52:04.783Z,973.48
2023-01-07T05:53:04.793Z,973.49
2023-01-07T05:54:04.754Z,973.47
2023-01-07T05:55:04.784Z,973.45
2023-01-07T05:56:04.771Z,973.45
2023-01-07T05:57:04.799Z,973.49
2023-01-07T05:58:04.704Z,973.44
2023-01-07T05:59:04.729Z,973.46
2023-01-07T06:00:04.682Z,973.45
2023-01-07T06:01:04.814Z,973.45
2023-01-07T06:02:04.658Z,973.42
2023-01-07T06:03:04.819Z,973.39
2023-01-07T06:04:04.627Z,973.35
2023-01-07T06:05:04.691Z,973.39
2023-01-07T06:06:04.624Z,973.35
2023-01-07T06:07:04.606Z,973.32
2023-01-07T06:08:04.618Z,973.34
2023-01-07T06:09:04.593Z,973.31
2023-01-07T06:10:04.550Z,973.29
2023-01-07T06:11:04.584Z,973.29
2023-01-07T06:12:04.528Z,973.28
2023-01-07T06:13:04.555Z,973.32
2023-01-07T06:14:04.500Z,973.32
2023-01-07T06:15:04.502Z,973.29
2023-01-07T06:16:04.499Z,973.31
2023-01-07T06:17:04.479Z,973.33
2023-01-07T06:18:04.453Z,973.33
2023-01-07T06:19:04.485Z,973.36
2023-01-07T06:20:04.421Z,973.31
2023-01-07T06:21:04.447Z,973.35
2023-01-07T06:22:04.399Z,973.33
2023-01-07T06:23:04.415Z,973.32
2023-01-07T06:24:04.401Z,973.34
2023-01-07T06:25:04.407Z,973.32
2023-01-07T06:26:04.345Z,973.29
2023-01-07T06:27:04.350Z,973.30
2023-01-07T06:28:04.338Z,973.27
2023-01-07T06:29:04.356Z,973.29
2023-01-07T06:30:04.379Z,973.29
2023-01-07T06:31:04.377Z,973.28
2023-01-07T06:32:04.271Z,973.25
2023-01-07T06:33:04.284Z,973.28
2023-01-07T06:34:04.242Z,973.26
2023-01-07T06:35:04.258Z,973.28
2023-01-07T06:36:04.243Z,973.26
2023-01-07T06:37:04.240Z,973.28
2023-01-07T06:38:04.195Z,973.33
2023-01-07T06:39:04.204Z,973.30
2023-01-07T06:40:04.161Z,973.31
2023-01-07T06:41:04.126Z,973.28
2023-01-07T06:42:04.179Z,973.28
2023-01-07T06:43:04.157Z,973.29
2023-01-07T06:44:04.120Z,973.26
2023-01-07T06:45:04.109Z,973.24
2023-01-07T06:46:04.136Z,973.20
2023-01-07T06:47:04.097Z,973.25
2023-01-07T06:48:04.070Z,973.23
2023-01-07T06:49:04.027Z,973.21
2023-01-07T06:50:03.995Z,973.22
2023-01-07T06:51:04.006Z,973.22
2023-01-07T06:52:04.034Z,973.24
2023-01-07T06:53:04.023Z,973.24
2023-01-07T06:54:03.963Z,973.22
2023-01-07T06:55:03.934Z,973.18
2023-01-07T06:56:03.943Z,973.16
2023-01-07T06:57:03.933Z,973.16
2023-01-07T06:58:03.879Z,973.18
2023-01-07T06:59:03.908Z,973.20
2023-01-07T07:00:03.860Z,973.18
2023-01-07T07:01:03.981Z,973.21
2023-01-07T07:02:03.986Z,973.20
2023-01-07T07:03:03.898Z,973.16
2023-01-07T07:04:03.817Z,973.18
2023-01-07T07:05:03.822Z,973.15
2023-01-07T07:06:03.774Z,973.11
2023-01-07T07:07:03.796Z,973.17
2023-01-07T07:08:03.785Z,973.16
2023-01-07T07:09:03.765Z,973.17
2023-01-07T07:10:03.724Z,973.15
2023-01-07T07:11:03.770Z,973.15
2023-01-07T07:12:03.723Z,973.09
2023-01-07T07:13:03.707Z,973.04
2023-01-07T07:14:03.681Z,973.05
2023-01-07T07:15:03.688Z,973.11
2023-01-07T07:16:03.739Z,973.11
2023-01-07T07:17:03.691Z,973.12
2023-01-07T07:18:03.624Z,973.02
2023-01-07T07:19:03.671Z,973.07
2023-01-07T07:20:03.609Z,973.10
2023-01-07T07:21:03.632Z,973.03
2023-01-07T07:22:04.774Z,973.07
2023-01-07T07:23:03.586Z,973.10
2023-01-07T07:24:03.602Z,973.14
2023-01-07T07:25:03.591Z,973.12
2023-01-07T07:26:03.513Z,973.08
2023-01-07T07:27:03.563Z,973.06
2023-01-07T07:28:03.529Z,973.03
2023-01-07T07:29:03.517Z,973.08
2023-01-07T07:30:03.489Z,973.08
2023-01-07T07:31:03.524Z,973.05
2023-01-07T07:32:03.440Z,973.03
2023-01-07T07:33:03.463Z,973.04
2023-01-07T07:34:03.443Z,973.05
2023-01-07T07:35:03.453Z,973.04
2023-01-07T07:36:03.397Z,973.04
2023-01-07T07:37:03.437Z,973.00
2023-01-07T07:38:03.369Z,973.06
2023-01-07T07:39:03.425Z,973.08
2023-01-07T07:40:03.355Z,973.09
2023-01-07T07:41:03.360Z,973.11
2023-01-07T07:42:03.317Z,973.07
2023-01-07T07:43:12.022Z,973.08
2023-01-07T07:44:04.317Z,973.08
2023-01-07T07:45:03.295Z,973.09
2023-01-07T07:46:03.271Z,973.07
2023-01-07T07:47:03.275Z,973.12
2023-01-07T07:48:03.245Z,973.11
2023-01-07T07:49:03.244Z,973.11
2023-01-07T07:50:03.264Z,973.09
2023-01-07T07:51:03.241Z,973.04
2023-01-07T07:52:03.190Z,973.08
2023-01-07T07:53:03.225Z,973.06
2023-01-07T07:54:03.161Z,973.05
2023-01-07T07:55:20.240Z,973.03
2023-01-07T07:56:04.200Z,972.97
2023-01-07T07:57:03.149Z,973.02
2023-01-07T07:58:03.115Z,973.02
2023-01-07T07:59:03.145Z,972.97
2023-01-07T08:00:03.092Z,973.04
2023-01-07T08:01:03.222Z,973.01
2023-01-07T08:02:03.183Z,972.97
2023-01-07T08:03:03.196Z,973.03
2023-01-07T08:04:03.039Z,972.98
2023-01-07T08:05:03.056Z,973.03
2023-01-07T08:06:03.038Z,973.02
2023-01-07T08:07:03.069Z,973.02
2023-01-07T08:08:03.007Z,972.97
2023-01-07T08:09:03.006Z,972.98
2023-01-07T08:10:02.955Z,972.99
2023-01-07T08:11:02.974Z,972.94
2023-01-07T08:12:02.933Z,972.99
2023-01-07T08:13:02.981Z,972.99
2023-01-07T08:14:02.916Z,973.00
2023-01-07T08:15:02.929Z,972.94
2023-01-07T08:16:02.910Z,972.97
2023-01-07T08:17:02.894Z,972.93
2023-01-07T08:18:02.890Z,972.91
2023-01-07T08:19:02.878Z,972.91
2023-01-07T08:20:02.838Z,972.92
2023-01-07T08:21:02.840Z,972.89
2023-01-07T08:22:02.812Z,972.88
2023-01-07T08:23:02.851Z,972.91
2023-01-07T08:24:02.819Z,972.93
2023-01-07T08:25:02.790Z,972.90
2023-01-07T08:26:02.757Z,972.88
2023-01-07T08:27:02.774Z,972.86
2023-01-07T08:28:02.767Z,972.88
2023-01-07T08:29:02.734Z,972.87
2023-01-07T08:30:02.733Z,972.89
2023-01-07T08:31:02.792Z,972.86
2023-01-07T08:32:02.685Z,972.86
2023-01-07T08:33:02.685Z,972.85
2023-01-07T08:34:02.658Z,972.87
2023-01-07T08:35:02.690Z,972.87
2023-01-07T08:36:06.991Z,972.86
2023-01-07T08:37:02.660Z,972.88
2023-01-07T08:38:02.628Z,972.88
2023-01-07T08:39:02.616Z,972.85
2023-01-07T08:40:05.446Z,972.86
2023-01-07T08:41:02.617Z,972.88
2023-01-07T08:42:02.595Z,972.87
2023-01-07T08:43:02.595Z,972.86
2023-01-07T08:44:02.528Z,972.83
2023-01-07T08:45:02.541Z,972.85
2023-01-07T08:46:02.497Z,972.84
2023-01-07T08:47:02.632Z,972.90
2023-01-07T08:48:02.501Z,972.83
2023-01-07T08:49:02.533Z,972.84
2023-01-07T08:50:02.453Z,972.81
2023-01-07T08:51:02.468Z,972.85
2023-01-07T08:52:02.431Z,972.82
2023-01-07T08:53:02.441Z,972.81
2023-01-07T08:54:02.403Z,972.84
2023-01-07T08:55:02.441Z,972.85
2023-01-07T08:56:02.367Z,972.84
2023-01-07T08:57:02.387Z,972.86
2023-01-07T08:58:02.358Z,972.81
2023-01-07T08:59:02.415Z,972.91
2023-01-07T09:00:02.397Z,972.82
2023-01-07T09:01:02.486Z,972.87
2023-01-07T09:02:02.512Z,972.80
2023-01-07T09:03:02.322Z,972.80
2023-01-07T09:04:02.278Z,972.83
2023-01-07T09:05:10.336Z,972.85
2023-01-07T09:06:02.264Z,972.85
2023-01-07T09:07:02.264Z,972.80
2023-01-07T09:08:02.253Z,972.80
2023-01-07T09:09:02.237Z,972.79
2023-01-07T09:10:02.225Z,972.81
2023-01-07T09:11:02.213Z,972.82
2023-01-07T09:12:02.259Z,972.78
2023-01-07T09:13:02.183Z,972.80
2023-01-07T09:14:02.182Z,972.80
2023-01-07T09:15:02.135Z,972.79
2023-01-07T09:16:02.184Z,972.73
2023-01-07T09:17:02.133Z,972.78
2023-01-07T09:18:02.171Z,972.80
2023-01-07T09:19:02.207Z,972.79
2023-01-07T09:20:02.127Z,972.81
2023-01-07T09:21:02.117Z,972.78
2023-01-07T09:22:02.111Z,972.81
2023-01-07T09:23:02.038Z,972.74
2023-01-07T09:24:02.098Z,972.79
2023-01-07T09:25:02.028Z,972.79
2023-01-07T09:26:02.120Z,972.76
2023-01-07T09:27:02.128Z,972.72
2023-01-07T09:28:02.030Z,972.74
2023-01-07T09:29:01.967Z,972.72
2023-01-07T09:30:01.989Z,972.77
2023-01-07T09:31:01.944Z,972.77
2023-01-07T09:32:01.967Z,972.81
2023-01-07T09:33:02.119Z,972.76
2023-01-07T09:34:01.933Z,972.77
2023-01-07T09:35:01.958Z,972.78
2023-01-07T09:36:01.914Z,972.81
2023-01-07T09:37:01.938Z,972.86
2023-01-07T09:38:01.961Z,972.85
2023-01-07T09:39:01.929Z,972.82
2023-01-07T09:40:01.989Z,972.87
2023-01-07T09:41:01.828Z,972.86
2023-01-07T09:42:01.848Z,972.89
2023-01-07T09:43:01.822Z,972.86
2023-01-07T09:44:02.105Z,972.89
2023-01-07T09:45:01.790Z,972.90
2023-01-07T09:46:01.846Z,972.93
2023-01-07T09:47:01.820Z,972.95
2023-01-07T09:48:01.747Z,972.91
2023-01-07T09:49:02.289Z,972.87
2023-01-07T09:50:01.735Z,972.88
2023-01-07T09:51:01.721Z,972.87
2023-01-07T09:52:01.719Z,972.88
2023-01-07T09:53:01.657Z,972.89
2023-01-07T09:54:01.709Z,972.83
2023-01-07T09:55:01.711Z,972.85
2023-01-07T09:56:12.139Z,972.85
2023-01-07T09:57:02.673Z,972.79
2023-01-07T09:58:01.675Z,972.77
2023-01-07T09:59:01.631Z,972.74
2023-01-07T10:00:01.598Z,972.76
2023-01-07T10:01:01.672Z,972.77
2023-01-07T10:02:01.717Z,972.76
2023-01-07T10:03:01.540Z,972.79
2023-01-07T10:04:01.634Z,972.78
2023-01-07T10:05:01.580Z,972.75
2023-01-07T10:06:01.579Z,972.76
2023-01-07T10:07:01.486Z,972.79
2023-01-07T10:08:30.785Z,972.75
2023-01-07T10:09:02.466Z,972.73
2023-01-07T10:10:01.552Z,972.76
2023-01-07T10:11:01.571Z,972.75
2023-01-07T10:12:01.544Z,972.76
2023-01-07T10:13:01.435Z,972.76
2023-01-07T10:14:01.422Z,972.74
2023-01-07T10:15:01.411Z,972.69
2023-01-07T10:16:01.428Z,972.68
2023-01-07T10:17:01.391Z,972.70
2023-01-07T10:18:01.359Z,972.69
2023-01-07T10:19:01.368Z,972.66
2023-01-07T10:20:01.347Z,972.65
2023-01-07T10:21:01.320Z,972.66
2023-01-07T10:22:01.328Z,972.64
2023-01-07T10:23:01.304Z,972.62
2023-01-07T10:24:01.322Z,972.63
2023-01-07T10:25:01.254Z,972.59
2023-01-07T10:26:01.271Z,972.60
2023-01-07T10:27:01.246Z,972.58
2023-01-07T10:28:01.373Z,972.56
2023-01-07T10:29:01.362Z,972.55
2023-01-07T10:30:01.216Z,972.54
2023-01-07T10:31:01.186Z,972.55
2023-01-07T10:32:01.285Z,972.54
2023-01-07T10:33:01.187Z,972.50
2023-01-07T10:34:01.186Z,972.45
2023-01-07T10:35:01.183Z,972.49
2023-01-07T10:36:01.157Z,972.48
2023-01-07T10:37:01.170Z,972.44
2023-01-07T10:38:01.205Z,972.44
2023-01-07T10:39:01.127Z,972.39
2023-01-07T10:40:01.101Z,972.38
2023-01-07T10:41:01.121Z,972.37
2023-01-07T10:42:01.077Z,972.31
2023-01-07T10:43:01.047Z,972.36
2023-01-07T10:44:01.059Z,972.33
2023-01-07T10:45:01.005Z,972.33
2023-01-07T10:46:01.088Z,972.32
2023-01-07T10:47:00.975Z,972.28
2023-01-07T10:48:01.020Z,972.28
2023-01-07T10:49:00.972Z,972.25
2023-01-07T10:50:01.028Z,972.23
2023-01-07T10:51:00.944Z,972.28
2023-01-07T10:52:00.931Z,972.17
2023-01-07T10:53:00.901Z,972.18
2023-01-07T10:54:00.930Z,972.15
2023-01-07T10:55:01.031Z,972.16
2023-01-07T10:56:01.016Z,972.15
2023-01-07T10:57:00.912Z,972.16
2023-01-07T10:58:00.860Z,972.19
2023-01-07T10:59:00.814Z,972.16
2023-01-07T11:00:00.870Z,972.15
2023-01-07T11:01:00.974Z,972.18
2023-01-07T11:02:01.176Z,972.15
2023-01-07T11:03:00.865Z,972.13
2023-01-07T11:04:00.787Z,972.15
2023-01-07T11:05:00.813Z,972.13
2023-01-07T11:06:00.801Z,972.11
2023-01-07T11:07:00.735Z,972.10
2023-01-07T11:08:00.742Z,972.05
2023-01-07T11:09:00.705Z,972.05
2023-01-07T11:10:00.694Z,972.04
2023-01-07T11:11:02.356Z,971.98
2023-01-07T11:12:00.731Z,972.01
2023-01-07T11:13:00.640Z,972.00
2023-01-07T11:14:00.756Z,971.95
2023-01-07T11:15:00.602Z,971.98
2023-01-07T11:16:00.642Z,971.92
2023-01-07T11:17:00.594Z,971.91
2023-01-07T11:18:00.612Z,971.93
2023-01-07T11:19:00.562Z,971.93
2023-01-07T11:20:00.584Z,972.00
2023-01-07T11:21:00.522Z,971.96
2023-01-07T11:22:00.539Z,971.92
2023-01-07T11:23:00.524Z,971.90
2023-01-07T11:24:00.510Z,971.91
2023-01-07T11:25:00.502Z,971.90
2023-01-07T11:26:00.494Z,971.87
2023-01-07T11:27:00.447Z,971.88
2023-01-07T11:28:00.519Z,971.87
2023-01-07T11:29:00.517Z,971.84
2023-01-07T11:30:00.455Z,971.88
2023-01-07T11:31:00.393Z,971.87
2023-01-07T11:32:00.490Z,971.87
2023-01-07T11:33:00.386Z,971.83
2023-01-07T11:34:02.568Z,971.84
2023-01-07T11:35:00.351Z,971.84
2023-01-07T11:36:00.345Z,971.86
2023-01-07T11:37:00.323Z,971.84
2023-01-07T11:38:00.391Z,971.85
2023-01-07T11:39:00.364Z,971.79
2023-01-07T11:40:00.716Z,971.83
2023-01-07T11:41:00.862Z,971.82
2023-01-07T11:42:00.294Z,971.76
2023-01-07T11:43:00.259Z,971.73
2023-01-07T11:44:00.278Z,971.71
2023-01-07T11:45:00.259Z,971.66
2023-01-07T11:46:20.881Z,971.67
2023-01-07T11:47:01.190Z,971.65
2023-01-07T11:48:00.255Z,971.62
2023-01-07T11:49:00.169Z,971.62
2023-01-07T11:50:00.206Z,971.62
2023-01-07T11:51:00.221Z,971.61
2023-01-07T11:52:00.282Z,971.57
2023-01-07T11:53:00.180Z,971.53
2023-01-07T11:54:00.210Z,971.49
2023-01-07T11:55:00.144Z,971.47
2023-01-07T11:56:01.058Z,971.47
2023-01-07T11:57:00.460Z,971.47
2023-01-07T11:58:29.723Z,971.45
2023-01-07T11:59:01.083Z,971.46
2023-01-07T12:00:00.039Z,971.46
2023-01-07T12:01:00.080Z,971.43
2023-01-07T12:02:00.150Z,971.36
2023-01-07T12:02:59.999Z,971.33
2023-01-07T12:03:59.980Z,971.32
2023-01-07T12:04:59.958Z,971.30
2023-01-07T12:05:59.963Z,971.28
2023-01-07T12:06:59.996Z,971.26
2023-01-07T12:07:59.944Z,971.31
2023-01-07T12:08:59.909Z,971.28
2023-01-07T12:09:59.919Z,971.30
2023-01-07T12:10:59.883Z,971.29
2023-01-07T12:11:59.915Z,971.25
2023-01-07T12:12:59.849Z,971.22
2023-01-07T12:13:59.863Z,971.20
2023-01-07T12:14:59.850Z,971.25
2023-01-07T12:15:59.849Z,971.25
2023-01-07T12:16:59.830Z,971.19
2023-01-07T12:17:59.844Z,971.20
2023-01-07T12:18:59.771Z,971.16
2023-01-07T12:19:59.960Z,971.16
2023-01-07T12:20:59.762Z,971.12
2023-01-07T12:21:59.861Z,971.09
2023-01-07T12:22:59.728Z,971.08
2023-01-07T12:23:59.779Z,971.05
2023-01-07T12:24:59.752Z,971.01
2023-01-07T12:25:59.786Z,971.03
2023-01-07T12:26:59.676Z,970.99
2023-01-07T12:27:59.687Z,970.99